sensor_id;sensor_type;location;lat;lon;timestamp;pressure;altitude;pressure_sealevel;temperature;humidity
75549;BME280;64133;56.002;37.208;2022-11-11T00:04:28;99315.95;;;6.84;88.64
75549;BME280;64133;56.002;37.208;2022-11-11T00:09:33;99311.38;;;6.80;88.78
75549;BME280;64133;56.002;37.208;2022-11-11T00:14:38;99314.72;;;6.82;88.85
75549;BME280;64133;56.002;37.208;2022-11-11T00:19:43;99307.70;;;6.83;88.78
75549;BME280;64133;56.002;37.208;2022-11-11T00:25:07;99313.16;;;6.79;88.84
75549;BME280;64133;56.002;37.208;2022-11-11T00:30:15;99314.47;;;6.79;88.98
75549;BME280;64133;56.002;37.208;2022-11-11T00:35:20;99314.63;;;6.84;89.03
75549;BME280;64133;56.002;37.208;2022-11-11T00:40:42;99308.17;;;6.82;89.00
75549;BME280;64133;56.002;37.208;2022-11-11T00:45:47;99309.09;;;6.88;89.14
75549;BME280;64133;56.002;37.208;2022-11-11T00:50:52;99302.23;;;6.93;88.99
75549;BME280;64133;56.002;37.208;2022-11-11T00:56:02;99301.23;;;6.88;88.98
75549;BME280;64133;56.002;37.208;2022-11-11T01:01:07;99294.73;;;6.94;88.99
75549;BME280;64133;56.002;37.208;2022-11-11T01:06:12;99297.91;;;6.92;89.01
75549;BME280;64133;56.002;37.208;2022-11-11T01:11:19;99296.91;;;6.87;89.12
75549;BME280;64133;56.002;37.208;2022-11-11T01:16:23;99292.67;;;6.92;89.06
75549;BME280;64133;56.002;37.208;2022-11-11T01:21:27;99298.30;;;6.93;89.10
75549;BME280;64133;56.002;37.208;2022-11-11T01:26:32;99304.45;;;6.92;89.21
75549;BME280;64133;56.002;37.208;2022-11-11T01:31:37;99298.45;;;6.97;89.03
75549;BME280;64133;56.002;37.208;2022-11-11T01:36:42;99298.45;;;6.97;88.95
75549;BME280;64133;56.002;37.208;2022-11-11T01:41:50;99301.91;;;6.97;89.03
75549;BME280;64133;56.002;37.208;2022-11-11T01:46:56;99301.28;;;6.94;88.97
75549;BME280;64133;56.002;37.208;2022-11-11T01:52:03;99293.11;;;6.98;89.01
75549;BME280;64133;56.002;37.208;2022-11-11T01:57:07;99293.74;;;7.02;88.94
75549;BME280;64133;56.002;37.208;2022-11-11T02:02:13;99297.67;;;7.02;88.89
75549;BME280;64133;56.002;37.208;2022-11-11T02:07:17;99298.03;;;7.03;88.76
75549;BME280;64133;56.002;37.208;2022-11-11T02:12:22;99301.59;;;7.02;88.73
75549;BME280;64133;56.002;37.208;2022-11-11T02:17:44;99298.63;;;7.01;88.93
75549;BME280;64133;56.002;37.208;2022-11-11T02:22:50;99289.85;;;6.95;88.96
75549;BME280;64133;56.002;37.208;2022-11-11T02:27:56;99291.52;;;6.96;89.11
75549;BME280;64133;56.002;37.208;2022-11-11T02:32:59;99288.30;;;6.92;89.31
75549;BME280;64133;56.002;37.208;2022-11-11T02:38:04;99296.23;;;6.91;89.42
75549;BME280;64133;56.002;37.208;2022-11-11T02:43:11;99304.45;;;6.92;89.55
75549;BME280;64133;56.002;37.208;2022-11-11T02:48:16;99297.59;;;6.96;89.39
75549;BME280;64133;56.002;37.208;2022-11-11T02:53:22;99306.71;;;6.91;89.52
75549;BME280;64133;56.002;37.208;2022-11-11T02:58:26;99296.28;;;6.96;89.71
75549;BME280;64133;56.002;37.208;2022-11-11T03:03:31;99292.52;;;7.00;89.65
75549;BME280;64133;56.002;37.208;2022-11-11T03:08:36;99290.80;;;6.94;89.60
75549;BME280;64133;56.002;37.208;2022-11-11T03:13:41;99284.14;;;6.95;89.60
75549;BME280;64133;56.002;37.208;2022-11-11T03:18:46;99291.91;;;6.97;89.62
75549;BME280;64133;56.002;37.208;2022-11-11T03:23:51;99295.68;;;6.93;89.52
75549;BME280;64133;56.002;37.208;2022-11-11T03:28:56;99298.55;;;6.95;89.76
75549;BME280;64133;56.002;37.208;2022-11-11T03:34:01;99297.15;;;6.97;89.57
75549;BME280;64133;56.002;37.208;2022-11-11T03:39:21;99303.98;;;7.05;89.56
75549;BME280;64133;56.002;37.208;2022-11-11T03:44:26;99312.00;;;6.96;89.56
75549;BME280;64133;56.002;37.208;2022-11-11T03:49:32;99302.59;;;6.94;89.68
75549;BME280;64133;56.002;37.208;2022-11-11T03:54:37;99255.59;;;6.60;89.77
75549;BME280;64133;56.002;37.208;2022-11-11T03:59:42;99313.31;;;6.96;89.82
75549;BME280;64133;56.002;37.208;2022-11-11T04:04:47;99316.88;;;6.95;89.89
75549;BME280;64133;56.002;37.208;2022-11-11T04:10:10;99322.95;;;6.96;89.90
75549;BME280;64133;56.002;37.208;2022-11-11T04:15:27;99321.16;;;6.96;89.89
75549;BME280;64133;56.002;37.208;2022-11-11T04:20:49;99329.88;;;6.97;90.01
75549;BME280;64133;56.002;37.208;2022-11-11T04:26:12;99327.98;;;6.99;89.99
75549;BME280;64133;56.002;37.208;2022-11-11T04:31:17;99334.12;;;6.92;89.93
75549;BME280;64133;56.002;37.208;2022-11-11T04:36:21;99335.80;;;6.93;90.04
75549;BME280;64133;56.002;37.208;2022-11-11T04:41:26;99350.36;;;6.97;90.15
75549;BME280;64133;56.002;37.208;2022-11-11T04:46:31;99338.77;;;6.94;90.19
75549;BME280;64133;56.002;37.208;2022-11-11T04:51:36;99337.19;;;6.92;90.17
75549;BME280;64133;56.002;37.208;2022-11-11T04:57:00;99346.63;;;6.94;90.22
75549;BME280;64133;56.002;37.208;2022-11-11T05:02:06;99352.70;;;6.95;90.36
75549;BME280;64133;56.002;37.208;2022-11-11T05:07:28;99351.55;;;6.99;90.18
75549;BME280;64133;56.002;37.208;2022-11-11T05:13:07;99355.13;;;6.98;90.21
75549;BME280;64133;56.002;37.208;2022-11-11T05:18:30;99360.92;;;6.96;90.25
75549;BME280;64133;56.002;37.208;2022-11-11T05:23:57;99356.37;;;7.05;90.45
75549;BME280;64133;56.002;37.208;2022-11-11T05:29:19;99362.78;;;7.01;90.39
75549;BME280;64133;56.002;37.208;2022-11-11T05:34:24;99373.03;;;7.04;90.33
75549;BME280;64133;56.002;37.208;2022-11-11T05:39:29;99377.27;;;6.99;90.13
75549;BME280;64133;56.002;37.208;2022-11-11T05:44:34;99375.23;;;6.97;90.32
75549;BME280;64133;56.002;37.208;2022-11-11T05:49:39;99372.78;;;7.01;90.35
75549;BME280;64133;56.002;37.208;2022-11-11T05:54:44;99376.02;;;7.05;90.36
75549;BME280;64133;56.002;37.208;2022-11-11T05:59:49;99381.72;;;7.04;90.17
75549;BME280;64133;56.002;37.208;2022-11-11T06:04:54;99384.98;;;7.08;90.38
75549;BME280;64133;56.002;37.208;2022-11-11T06:09:59;99396.58;;;7.11;90.14
75549;BME280;64133;56.002;37.208;2022-11-11T06:15:23;99404.27;;;7.07;90.12
75549;BME280;64133;56.002;37.208;2022-11-11T06:20:28;99402.91;;;7.01;90.37
75549;BME280;64133;56.002;37.208;2022-11-11T06:25:33;99412.13;;;7.07;90.36
75549;BME280;64133;56.002;37.208;2022-11-11T06:30:55;99409.87;;;7.08;90.36
75549;BME280;64133;56.002;37.208;2022-11-11T06:36:00;99409.20;;;7.12;90.40
75549;BME280;64133;56.002;37.208;2022-11-11T06:41:05;99409.05;;;7.20;90.30
75549;BME280;64133;56.002;37.208;2022-11-11T06:46:12;99413.50;;;7.25;90.27
75549;BME280;64133;56.002;37.208;2022-11-11T06:51:16;99416.33;;;7.35;90.07
75549;BME280;64133;56.002;37.208;2022-11-11T06:56:21;99411.38;;;7.38;89.84
75549;BME280;64133;56.002;37.208;2022-11-11T07:01:26;99414.31;;;7.46;89.73
75549;BME280;64133;56.002;37.208;2022-11-11T07:06:31;99416.50;;;7.39;89.28
75549;BME280;64133;56.002;37.208;2022-11-11T07:11:36;99425.42;;;7.37;89.47
75549;BME280;64133;56.002;37.208;2022-11-11T07:16:41;99424.83;;;7.39;89.31
75549;BME280;64133;56.002;37.208;2022-11-11T07:21:46;99434.05;;;7.44;89.49
75549;BME280;64133;56.002;37.208;2022-11-11T07:26:50;99435.16;;;7.47;89.23
75549;BME280;64133;56.002;37.208;2022-11-11T07:31:55;99437.31;;;7.48;89.17
75549;BME280;64133;56.002;37.208;2022-11-11T07:37:00;99438.73;;;7.46;89.25
75549;BME280;64133;56.002;37.208;2022-11-11T07:42:05;99444.02;;;7.52;89.43
75549;BME280;64133;56.002;37.208;2022-11-11T07:47:10;99450.68;;;7.38;89.32
75549;BME280;64133;56.002;37.208;2022-11-11T07:52:15;99461.02;;;7.46;89.50
75549;BME280;64133;56.002;37.208;2022-11-11T07:57:20;99461.13;;;7.45;89.54
75549;BME280;64133;56.002;37.208;2022-11-11T08:02:25;99456.57;;;7.54;89.27
75549;BME280;64133;56.002;37.208;2022-11-11T08:07:30;99453.36;;;7.56;89.43
75549;BME280;64133;56.002;37.208;2022-11-11T08:12:35;99443.15;;;7.71;89.25
75549;BME280;64133;56.002;37.208;2022-11-11T08:17:57;99441.56;;;7.69;88.82
75549;BME280;64133;56.002;37.208;2022-11-11T08:23:02;99434.28;;;7.79;88.73
75549;BME280;64133;56.002;37.208;2022-11-11T08:28:07;99435.62;;;7.98;88.35
75549;BME280;64133;56.002;37.208;2022-11-11T08:33:12;99425.30;;;7.89;87.83
75549;BME280;64133;56.002;37.208;2022-11-11T08:38:17;99418.30;;;7.95;87.53
75549;BME280;64133;56.002;37.208;2022-11-11T08:43:22;99422.41;;;8.05;87.53
75549;BME280;64133;56.002;37.208;2022-11-11T08:48:27;99435.14;;;7.98;87.40
75549;BME280;64133;56.002;37.208;2022-11-11T08:53:32;99431.84;;;8.02;87.48
75549;BME280;64133;56.002;37.208;2022-11-11T08:58:37;99425.48;;;7.99;87.51
75549;BME280;64133;56.002;37.208;2022-11-11T09:03:44;99432.76;;;8.01;87.37
75549;BME280;64133;56.002;37.208;2022-11-11T09:08:49;99436.86;;;7.92;87.66
75549;BME280;64133;56.002;37.208;2022-11-11T09:13:54;99434.36;;;7.91;87.84
75549;BME280;64133;56.002;37.208;2022-11-11T09:18:58;99447.45;;;8.03;87.63
75549;BME280;64133;56.002;37.208;2022-11-11T09:24:04;99445.59;;;7.93;87.90
75549;BME280;64133;56.002;37.208;2022-11-11T09:29:09;99451.17;;;7.88;87.90
75549;BME280;64133;56.002;37.208;2022-11-11T09:34:14;99464.20;;;7.83;87.96
75549;BME280;64133;56.002;37.208;2022-11-11T09:39:19;99461.59;;;7.83;88.20
75549;BME280;64133;56.002;37.208;2022-11-11T09:44:35;99464.64;;;7.76;88.51
75549;BME280;64133;56.002;37.208;2022-11-11T09:49:58;99460.39;;;7.81;88.54
75549;BME280;64133;56.002;37.208;2022-11-11T09:55:05;99466.67;;;7.78;88.52
75549;BME280;64133;56.002;37.208;2022-11-11T10:00:16;99464.80;;;7.68;88.79
75549;BME280;64133;56.002;37.208;2022-11-11T10:05:22;99469.89;;;7.76;89.04
75549;BME280;64133;56.002;37.208;2022-11-11T10:10:33;99474.55;;;7.78;88.93
75549;BME280;64133;56.002;37.208;2022-11-11T10:15:37;99479.19;;;7.75;88.97
75549;BME280;64133;56.002;37.208;2022-11-11T10:20:41;99492.86;;;7.86;88.92
75549;BME280;64133;56.002;37.208;2022-11-11T10:25:48;99481.09;;;7.78;89.09
75549;BME280;64133;56.002;37.208;2022-11-11T10:30:52;99482.84;;;7.85;89.15
75549;BME280;64133;56.002;37.208;2022-11-11T10:35:59;99492.73;;;8.00;88.86
75549;BME280;64133;56.002;37.208;2022-11-11T10:41:04;99504.34;;;7.90;89.16
75549;BME280;64133;56.002;37.208;2022-11-11T10:46:11;99498.89;;;7.93;89.22
75549;BME280;64133;56.002;37.208;2022-11-11T10:51:14;99503.70;;;7.87;89.02
75549;BME280;64133;56.002;37.208;2022-11-11T10:56:22;99507.08;;;7.89;89.42
75549;BME280;64133;56.002;37.208;2022-11-11T11:01:28;99514.79;;;7.85;89.23
75549;BME280;64133;56.002;37.208;2022-11-11T11:06:32;99516.89;;;7.79;89.44
75549;BME280;64133;56.002;37.208;2022-11-11T11:11:37;99531.40;;;7.78;89.73
75549;BME280;64133;56.002;37.208;2022-11-11T11:16:45;99531.03;;;7.77;89.93
75549;BME280;64133;56.002;37.208;2022-11-11T11:21:52;99534.09;;;7.71;90.12
75549;BME280;64133;56.002;37.208;2022-11-11T11:26:57;99540.69;;;7.76;90.15
75549;BME280;64133;56.002;37.208;2022-11-11T11:37:50;99522.30;;;7.84;90.37
75549;BME280;64133;56.002;37.208;2022-11-11T11:42:55;99521.55;;;7.81;90.28
75549;BME280;64133;56.002;37.208;2022-11-11T11:48:08;99514.79;;;7.85;90.38
75549;BME280;64133;56.002;37.208;2022-11-11T11:53:19;99516.30;;;7.81;90.06
75549;BME280;64133;56.002;37.208;2022-11-11T11:58:28;99516.02;;;7.79;90.11
75549;BME280;64133;56.002;37.208;2022-11-11T12:04:06;99510.94;;;7.83;90.12
75549;BME280;64133;56.002;37.208;2022-11-11T12:09:14;99509.11;;;7.78;90.08
75549;BME280;64133;56.002;37.208;2022-11-11T12:14:35;99510.86;;;7.85;90.43
75549;BME280;64133;56.002;37.208;2022-11-11T12:19:43;99507.32;;;7.78;89.94
75549;BME280;64133;56.002;37.208;2022-11-11T12:24:50;99501.99;;;7.80;90.04
75549;BME280;64133;56.002;37.208;2022-11-11T12:30:02;99502.19;;;7.77;90.19
75549;BME280;64133;56.002;37.208;2022-11-11T12:35:17;99503.34;;;7.73;90.26
75549;BME280;64133;56.002;37.208;2022-11-11T12:40:23;99511.48;;;7.75;90.33
75549;BME280;64133;56.002;37.208;2022-11-11T12:45:29;99506.60;;;7.76;90.28
75549;BME280;64133;56.002;37.208;2022-11-11T12:50:35;99494.48;;;7.81;90.21
75549;BME280;64133;56.002;37.208;2022-11-11T12:55:41;99502.23;;;7.83;89.85
75549;BME280;64133;56.002;37.208;2022-11-11T13:00:50;99497.58;;;7.80;89.74
75549;BME280;64133;56.002;37.208;2022-11-11T13:05:58;99504.02;;;7.82;89.57
75549;BME280;64133;56.002;37.208;2022-11-11T13:11:03;99507.13;;;7.81;89.29
75549;BME280;64133;56.002;37.208;2022-11-11T13:16:08;99503.70;;;7.87;89.09
75549;BME280;64133;56.002;37.208;2022-11-11T13:21:14;99498.46;;;7.87;88.54
75549;BME280;64133;56.002;37.208;2022-11-11T13:26:24;99495.75;;;7.75;88.19
75549;BME280;64133;56.002;37.208;2022-11-11T13:31:30;99500.72;;;7.73;87.62
75549;BME280;64133;56.002;37.208;2022-11-11T13:36:41;99490.59;;;7.74;87.55
75549;BME280;64133;56.002;37.208;2022-11-11T13:41:44;99495.20;;;7.70;87.48
75549;BME280;64133;56.002;37.208;2022-11-11T13:46:49;99491.91;;;7.74;87.50
75549;BME280;64133;56.002;37.208;2022-11-11T13:52:00;99489.23;;;7.81;87.34
75549;BME280;64133;56.002;37.208;2022-11-11T13:57:14;99489.36;;;7.79;87.28
75549;BME280;64133;56.002;37.208;2022-11-11T14:02:28;99482.68;;;7.81;87.26
75549;BME280;64133;56.002;37.208;2022-11-11T14:12:57;99483.36;;;7.77;87.44
75549;BME280;64133;56.002;37.208;2022-11-11T14:18:02;99492.42;;;7.79;87.47
75549;BME280;64133;56.002;37.208;2022-11-11T14:23:29;99482.56;;;7.83;87.41
75549;BME280;64133;56.002;37.208;2022-11-11T14:28:32;99432.30;;;7.45;87.52
75549;BME280;64133;56.002;37.208;2022-11-11T14:33:44;99472.63;;;7.75;87.56
75549;BME280;64133;56.002;37.208;2022-11-11T14:38:50;99480.27;;;7.78;87.49
75549;BME280;64133;56.002;37.208;2022-11-11T14:43:54;99490.87;;;7.76;87.62
75549;BME280;64133;56.002;37.208;2022-11-11T14:49:03;99477.95;;;7.73;87.56
75549;BME280;64133;56.002;37.208;2022-11-11T14:54:19;99477.39;;;7.75;87.56
75549;BME280;64133;56.002;37.208;2022-11-11T14:59:22;99462.97;;;7.75;87.68
75549;BME280;64133;56.002;37.208;2022-11-11T15:04:33;99446.41;;;7.75;87.59
75549;BME280;64133;56.002;37.208;2022-11-11T15:09:55;99427.77;;;7.72;87.44
75549;BME280;64133;56.002;37.208;2022-11-11T15:15:02;99427.66;;;7.74;87.28
75549;BME280;64133;56.002;37.208;2022-11-11T15:20:16;99410.56;;;7.81;87.15
75549;BME280;64133;56.002;37.208;2022-11-11T15:25:27;99403.70;;;7.60;87.09
75549;BME280;64133;56.002;37.208;2022-11-11T15:30:42;99415.15;;;7.59;87.24
75549;BME280;64133;56.002;37.208;2022-11-11T15:35:48;99406.30;;;7.54;87.20
75549;BME280;64133;56.002;37.208;2022-11-11T15:40:55;99400.25;;;7.47;87.47
75549;BME280;64133;56.002;37.208;2022-11-11T15:46:06;99407.48;;;7.56;87.35
75549;BME280;64133;56.002;37.208;2022-11-11T15:51:26;99412.41;;;7.61;86.96
75549;BME280;64133;56.002;37.208;2022-11-11T15:56:30;99429.97;;;7.66;86.73
75549;BME280;64133;56.002;37.208;2022-11-11T16:01:37;99437.23;;;7.62;86.55
75549;BME280;64133;56.002;37.208;2022-11-11T16:06:42;99434.61;;;7.62;86.45
75549;BME280;64133;56.002;37.208;2022-11-11T16:11:47;99423.38;;;7.60;86.57
75549;BME280;64133;56.002;37.208;2022-11-11T16:16:52;99416.41;;;7.41;86.68
75549;BME280;64133;56.002;37.208;2022-11-11T16:21:59;99420.10;;;7.31;86.81
75549;BME280;64133;56.002;37.208;2022-11-11T16:27:06;99415.56;;;7.27;87.02
75549;BME280;64133;56.002;37.208;2022-11-11T16:32:33;99419.91;;;7.34;86.79
75549;BME280;64133;56.002;37.208;2022-11-11T16:37:51;99402.30;;;7.23;86.83
75549;BME280;64133;56.002;37.208;2022-11-11T16:43:21;99393.39;;;7.39;87.10
75549;BME280;64133;56.002;37.208;2022-11-11T16:48:45;99384.05;;;7.47;86.39
75549;BME280;64133;56.002;37.208;2022-11-11T16:54:05;99377.19;;;7.39;86.31
75549;BME280;64133;56.002;37.208;2022-11-11T16:59:03;99357.37;;;7.48;86.19
75549;BME280;64133;56.002;37.208;2022-11-11T17:04:08;99368.80;;;7.47;86.25
75549;BME280;64133;56.002;37.208;2022-11-11T17:09:28;99363.08;;;7.60;85.98
75549;BME280;64133;56.002;37.208;2022-11-11T17:14:34;99353.44;;;7.48;85.89
75549;BME280;64133;56.002;37.208;2022-11-11T17:19:38;99350.65;;;7.56;86.01
75549;BME280;64133;56.002;37.208;2022-11-11T17:24:43;99363.88;;;7.55;85.77
75549;BME280;64133;56.002;37.208;2022-11-11T17:29:48;99352.55;;;7.54;85.72
75549;BME280;64133;56.002;37.208;2022-11-11T17:34:56;99340.76;;;7.54;85.87
75549;BME280;64133;56.002;37.208;2022-11-11T17:40:00;99326.58;;;7.57;86.00
75549;BME280;64133;56.002;37.208;2022-11-11T17:45:07;99322.89;;;7.72;85.52
75549;BME280;64133;56.002;37.208;2022-11-11T17:50:12;99315.68;;;7.63;85.70
75549;BME280;64133;56.002;37.208;2022-11-11T17:55:17;99318.00;;;7.55;85.78
75549;BME280;64133;56.002;37.208;2022-11-11T18:00:22;99329.35;;;7.61;85.86
75549;BME280;64133;56.002;37.208;2022-11-11T18:05:27;99318.62;;;7.59;85.69
75549;BME280;64133;56.002;37.208;2022-11-11T18:10:32;99297.51;;;7.54;85.87
75549;BME280;64133;56.002;37.208;2022-11-11T18:15:37;99286.09;;;7.61;86.02
75549;BME280;64133;56.002;37.208;2022-11-11T18:20:42;99288.33;;;7.54;85.98
75549;BME280;64133;56.002;37.208;2022-11-11T18:25:54;99285.73;;;7.60;85.93
75549;BME280;64133;56.002;37.208;2022-11-11T18:31:11;99279.94;;;7.62;86.03
75549;BME280;64133;56.002;37.208;2022-11-11T18:36:13;99275.11;;;7.56;86.10
75549;BME280;64133;56.002;37.208;2022-11-11T18:41:17;99263.78;;;7.55;85.92
75549;BME280;64133;56.002;37.208;2022-11-11T18:46:23;99265.27;;;7.65;85.84
75549;BME280;64133;56.002;37.208;2022-11-11T18:51:28;99264.56;;;7.63;85.91
75549;BME280;64133;56.002;37.208;2022-11-11T18:56:33;99260.03;;;7.65;85.85
75549;BME280;64133;56.002;37.208;2022-11-11T19:01:38;99261.25;;;7.67;85.85
75549;BME280;64133;56.002;37.208;2022-11-11T19:06:43;99243.83;;;7.66;85.84
75549;BME280;64133;56.002;37.208;2022-11-11T19:11:48;99243.61;;;7.69;86.03
75549;BME280;64133;56.002;37.208;2022-11-11T19:16:53;99227.88;;;7.69;85.75
75549;BME280;64133;56.002;37.208;2022-11-11T19:21:58;99213.73;;;7.71;85.96
75549;BME280;64133;56.002;37.208;2022-11-11T19:33:10;99196.01;;;7.80;85.83
75549;BME280;64133;56.002;37.208;2022-11-11T19:38:15;99192.64;;;7.78;85.81
75549;BME280;64133;56.002;37.208;2022-11-11T19:43:20;99189.80;;;7.76;85.41
75549;BME280;64133;56.002;37.208;2022-11-11T19:48:25;99179.04;;;7.73;85.49
75549;BME280;64133;56.002;37.208;2022-11-11T19:53:33;99177.23;;;7.68;85.65
75549;BME280;64133;56.002;37.208;2022-11-11T20:03:51;99159.50;;;7.72;86.19
75549;BME280;64133;56.002;37.208;2022-11-11T20:08:58;99148.95;;;7.61;86.44
75549;BME280;64133;56.002;37.208;2022-11-11T20:14:02;99130.60;;;7.61;86.64
75549;BME280;64133;56.002;37.208;2022-11-11T20:19:07;99135.13;;;7.59;86.88
75549;BME280;64133;56.002;37.208;2022-11-11T20:24:13;99128.67;;;7.57;87.11
75549;BME280;64133;56.002;37.208;2022-11-11T20:29:18;99113.34;;;7.64;86.99
75549;BME280;64133;56.002;37.208;2022-11-11T20:34:23;99110.86;;;7.68;87.19
75549;BME280;64133;56.002;37.208;2022-11-11T20:39:28;99102.02;;;7.63;86.89
75549;BME280;64133;56.002;37.208;2022-11-11T20:44:33;99104.17;;;7.64;87.33
75549;BME280;64133;56.002;37.208;2022-11-11T20:49:38;99100.02;;;7.67;87.20
75549;BME280;64133;56.002;37.208;2022-11-11T20:54:43;99095.27;;;7.72;87.37
75549;BME280;64133;56.002;37.208;2022-11-11T20:59:48;99103.34;;;7.63;87.57
75549;BME280;64133;56.002;37.208;2022-11-11T21:04:53;99090.80;;;7.61;87.58
75549;BME280;64133;56.002;37.208;2022-11-11T21:09:58;99089.27;;;7.64;87.58
75549;BME280;64133;56.002;37.208;2022-11-11T21:15:03;99076.16;;;7.64;87.63
75549;BME280;64133;56.002;37.208;2022-11-11T21:20:09;99076.29;;;7.63;88.01
75549;BME280;64133;56.002;37.208;2022-11-11T21:25:14;99063.53;;;7.64;87.84
75549;BME280;64133;56.002;37.208;2022-11-11T21:30:19;99050.91;;;7.63;87.89
75549;BME280;64133;56.002;37.208;2022-11-11T21:35:24;99066.30;;;7.79;87.88
75549;BME280;64133;56.002;37.208;2022-11-11T21:40:29;99052.09;;;7.70;87.59
75549;BME280;64133;56.002;37.208;2022-11-11T21:45:37;99037.89;;;7.62;88.12
75549;BME280;64133;56.002;37.208;2022-11-11T21:50:42;99032.95;;;7.81;87.82
75549;BME280;64133;56.002;37.208;2022-11-11T21:55:51;99024.25;;;7.75;87.97
75549;BME280;64133;56.002;37.208;2022-11-11T22:00:59;99017.57;;;7.76;88.17
75549;BME280;64133;56.002;37.208;2022-11-11T22:06:05;99025.82;;;7.89;87.10
75549;BME280;64133;56.002;37.208;2022-11-11T22:11:11;99015.33;;;7.94;87.31
75549;BME280;64133;56.002;37.208;2022-11-11T22:21:29;99000.42;;;7.95;87.39
75549;BME280;64133;56.002;37.208;2022-11-11T22:26:35;99008.39;;;7.88;87.31
75549;BME280;64133;56.002;37.208;2022-11-11T22:31:39;99002.44;;;7.86;87.27
75549;BME280;64133;56.002;37.208;2022-11-11T22:36:44;98996.72;;;7.86;87.47
75549;BME280;64133;56.002;37.208;2022-11-11T22:41:49;98994.22;;;7.85;87.36
75549;BME280;64133;56.002;37.208;2022-11-11T22:46:54;98995.88;;;7.86;87.41
75549;BME280;64133;56.002;37.208;2022-11-11T22:51:59;98994.22;;;7.85;87.33
75549;BME280;64133;56.002;37.208;2022-11-11T22:57:04;98988.25;;;7.83;87.31
75549;BME280;64133;56.002;37.208;2022-11-11T23:02:09;98995.06;;;7.79;87.49
75549;BME280;64133;56.002;37.208;2022-11-11T23:07:14;99001.38;;;7.88;87.68
75549;BME280;64133;56.002;37.208;2022-11-11T23:12:19;99008.30;;;7.89;87.17
75549;BME280;64133;56.002;37.208;2022-11-11T23:17:24;99013.31;;;7.98;87.34
75549;BME280;64133;56.002;37.208;2022-11-11T23:22:29;99017.22;;;7.92;87.34
75549;BME280;64133;56.002;37.208;2022-11-11T23:27:34;99017.95;;;7.89;87.62
75549;BME280;64133;56.002;37.208;2022-11-11T23:32:39;99014.59;;;7.87;87.53
75549;BME280;64133;56.002;37.208;2022-11-11T23:37:44;99011.88;;;7.94;88.13
75549;BME280;64133;56.002;37.208;2022-11-11T23:42:49;99003.72;;;7.69;88.30
75549;BME280;64133;56.002;37.208;2022-11-11T23:47:54;99011.63;;;7.86;88.64
75549;BME280;64133;56.002;37.208;2022-11-11T23:52:59;98998.38;;;7.87;88.56
75549;BME280;64133;56.002;37.208;2022-11-11T23:58:04;98984.19;;;7.78;89.27
